Time;durP1;ratioP1;P1;durP2;ratioP2;P2;SDS_P1;SDS_P2;PMS_P1;PMS_P2;Temp;Humidity;BMP_temperature;BMP_pressure;BME280_temperature;BME280_humidity;BME280_pressure;Samples;Min_cycle;Max_cycle;Signal;HPM_P1;HPM_P2
2023/03/19 00:02:06;;;;;;;28.75;16.20;;;11.60;99.90;;;;;;5030973;28;20048;-68
2023/03/19 00:04:32;;;;;;;25.65;12.90;;;11.60;99.90;;;;;;5013683;28;20021;-69
2023/03/19 00:06:59;;;;;;;31.00;15.68;;;11.60;99.90;;;;;;5013731;28;20029;-68
2023/03/19 00:09:26;;;;;;;26.00;13.63;;;11.60;99.90;;;;;;5031122;28;20490;-69
2023/03/19 00:11:52;;;;;;;28.23;15.20;;;11.60;99.90;;;;;;5031446;28;20025;-69
2023/03/19 00:14:18;;;;;;;29.45;15.90;;;11.70;99.90;;;;;;5013824;28;20024;-69
2023/03/19 00:16:46;;;;;;;31.63;17.60;;;11.70;99.90;;;;;;5012500;28;20120;-69
2023/03/19 00:19:13;;;;;;;30.05;16.25;;;11.70;99.90;;;;;;5029529;28;20417;-69
2023/03/19 00:21:39;;;;;;;28.23;16.27;;;11.70;99.90;;;;;;5031256;28;20037;-69
2023/03/19 00:24:05;;;;;;;28.55;16.63;;;11.70;99.90;;;;;;5031319;28;20021;-69
2023/03/19 00:26:33;;;;;;;31.73;19.15;;;11.70;99.90;;;;;;5029247;28;20106;-69
2023/03/19 00:28:58;;;;;;;32.83;19.40;;;11.80;99.90;;;;;;5029210;28;20025;-69
2023/03/19 00:31:25;;;;;;;32.58;19.45;;;11.80;99.90;;;;;;5030928;28;20056;-69
2023/03/19 00:33:52;;;;;;;32.92;17.50;;;11.80;99.90;;;;;;5031553;28;20594;-68
2023/03/19 00:36:20;;;;;;;35.38;19.58;;;11.80;99.90;;;;;;5031257;28;20421;-70
2023/03/19 00:38:46;;;;;;;33.95;19.73;;;11.80;99.90;;;;;;5030555;28;20418;-69
2023/03/19 00:41:12;;;;;;;35.45;21.83;;;11.80;99.90;;;;;;5028501;28;20092;-69
2023/03/19 00:43:38;;;;;;;33.92;19.55;;;11.90;99.90;;;;;;5030790;28;20047;-70
2023/03/19 00:46:05;;;;;;;37.10;21.73;;;11.90;99.90;;;;;;5030473;28;20051;-68
2023/03/19 00:48:30;;;;;;;35.47;20.63;;;12.00;99.90;;;;;;5032841;28;20107;-68
2023/03/19 00:51:03;;;;;;;32.47;18.73;;;12.00;99.90;;;;;;5031221;28;20033;-69
2023/03/19 00:53:28;;;;;;;37.97;21.02;;;11.90;99.90;;;;;;5032412;28;20030;-68
2023/03/19 00:55:54;;;;;;;36.97;22.35;;;12.00;99.90;;;;;;5032368;28;20032;-69
2023/03/19 00:58:19;;;;;;;37.28;22.58;;;11.90;99.90;;;;;;5032267;28;20025;-69
2023/03/19 01:00:45;;;;;;;37.85;20.90;;;12.00;99.90;;;;;;5032281;28;20045;-68
2023/03/19 01:03:11;;;;;;;30.27;18.75;;;12.00;99.90;;;;;;5030541;28;20028;-69
2023/03/19 01:05:36;;;;;;;38.28;21.30;;;12.00;99.90;;;;;;5031076;28;20413;-68
2023/03/19 01:08:02;;;;;;;34.42;21.02;;;12.00;99.90;;;;;;5031891;28;20041;-68
2023/03/19 01:10:27;;;;;;;38.28;21.98;;;11.90;99.90;;;;;;5022766;28;20440;-68
2023/03/19 01:12:53;;;;;;;30.55;15.65;;;11.80;99.90;;;;;;5019752;28;20034;-68
2023/03/19 01:15:19;;;;;;;37.25;22.38;;;11.80;99.90;;;;;;5024513;28;20116;-69
2023/03/19 01:17:44;;;;;;;34.92;20.15;;;11.70;99.90;;;;;;5014679;28;20033;-68
2023/03/19 01:20:17;;;;;;;34.60;20.45;;;11.60;99.90;;;;;;5015606;28;20120;-69
2023/03/19 01:22:44;;;;;;;31.73;17.52;;;11.50;99.90;;;;;;5031292;28;20608;-68
2023/03/19 01:25:11;;;;;;;35.40;17.77;;;11.40;99.90;;;;;;5028782;28;20386;-70
2023/03/19 01:27:37;;;;;;;35.22;18.33;;;11.30;99.90;;;;;;5031817;28;20068;-70
2023/03/19 01:30:03;;;;;;;33.50;16.58;;;11.30;99.90;;;;;;5031367;28;20085;-70
2023/03/19 01:32:28;;;;;;;28.73;13.45;;;11.30;99.90;;;;;;5014062;28;20026;-69
2023/03/19 01:34:54;;;;;;;30.45;14.02;;;11.20;99.90;;;;;;5031106;28;20033;-69
2023/03/19 01:37:20;;;;;;;32.45;15.45;;;11.20;99.90;;;;;;5031761;28;20029;-70
2023/03/19 01:39:45;;;;;;;31.63;15.20;;;11.20;99.90;;;;;;5031449;28;20021;-70
2023/03/19 01:42:12;;;;;;;30.15;15.65;;;11.30;99.90;;;;;;5031434;28;20430;-69
2023/03/19 01:44:39;;;;;;;29.98;14.05;;;11.20;99.90;;;;;;5030785;28;20033;-69
2023/03/19 01:47:22;;;;;;;30.35;14.63;;;11.20;99.90;;;;;;5031457;28;20038;-69
2023/03/19 01:49:53;;;;;;;27.23;13.38;;;11.20;99.90;;;;;;5031495;28;20033;-69
2023/03/19 01:52:19;;;;;;;29.63;13.57;;;11.20;99.90;;;;;;5031350;28;20025;-70
2023/03/19 01:54:45;;;;;;;31.00;13.98;;;11.10;99.90;;;;;;5033920;28;20025;-69
2023/03/19 01:57:13;;;;;;;28.95;13.50;;;11.00;99.90;;;;;;5034491;28;20045;-70
2023/03/19 01:59:49;;;;;;;28.55;14.10;;;11.00;99.90;;;;;;5033208;28;20048;-69
2023/03/19 02:02:22;;;;;;;27.38;13.05;;;10.90;99.90;;;;;;5032911;28;20062;-69
2023/03/19 02:04:52;;;;;;;33.35;15.43;;;10.80;99.90;;;;;;5034818;28;20033;-69
2023/03/19 02:07:19;;;;;;;24.88;10.82;;;10.60;99.90;;;;;;5034411;28;20030;-69
2023/03/19 02:09:45;;;;;;;25.67;11.88;;;10.60;99.90;;;;;;5033832;28;20148;-69
2023/03/19 02:12:11;;;;;;;25.48;12.07;;;10.60;99.90;;;;;;5026624;28;20026;-70
2023/03/19 02:14:37;;;;;;;26.83;11.43;;;10.50;99.90;;;;;;5032067;28;20022;-69
2023/03/19 02:17:04;;;;;;;28.02;13.40;;;10.40;99.90;;;;;;5028368;28;20156;-69
2023/03/19 02:19:43;;;;;;;24.92;11.02;;;10.30;99.90;;;;;;5020144;28;20038;-69
2023/03/19 02:22:11;;;;;;;28.20;12.77;;;10.30;99.90;;;;;;5034401;28;20044;-69
2023/03/19 02:24:48;;;;;;;28.75;11.82;;;10.30;99.90;;;;;;5033733;28;20094;-69
2023/03/19 02:27:13;;;;;;;29.52;13.20;;;10.20;99.90;;;;;;5034542;28;20033;-69
2023/03/19 02:29:39;;;;;;;25.40;11.25;;;10.10;99.90;;;;;;5034104;28;20021;-70
2023/03/19 02:32:05;;;;;;;29.45;12.77;;;10.10;99.90;;;;;;5034803;28;20083;-69
2023/03/19 02:34:36;;;;;;;30.55;10.90;;;10.00;99.90;;;;;;5034072;28;20018;-69
2023/03/19 02:37:07;;;;;;;26.45;9.23;;;10.00;99.90;;;;;;5033692;28;20038;-70
2023/03/19 02:39:55;;;;;;;28.73;13.25;;;9.90;99.90;;;;;;5033780;28;20045;-69
2023/03/19 02:42:23;;;;;;;28.60;11.95;;;9.80;99.90;;;;;;5034611;28;20038;-69
2023/03/19 02:44:48;;;;;;;27.90;11.38;;;9.80;99.90;;;;;;5033664;28;20030;-69
2023/03/19 02:47:14;;;;;;;29.92;11.63;;;9.80;99.90;;;;;;5033939;28;20116;-69
2023/03/19 02:49:40;;;;;;;34.17;13.02;;;9.70;99.90;;;;;;5034105;28;20037;-69
2023/03/19 02:52:06;;;;;;;29.38;12.05;;;9.70;99.90;;;;;;5034140;28;20029;-69
2023/03/19 02:54:31;;;;;;;30.25;12.68;;;9.70;99.90;;;;;;5032670;28;20064;-69
2023/03/19 02:56:57;;;;;;;30.83;13.32;;;9.70;99.90;;;;;;5033804;28;20060;-70
2023/03/19 02:59:22;;;;;;;31.80;13.30;;;9.70;99.90;;;;;;5033344;28;20061;-69
2023/03/19 03:01:48;;;;;;;35.40;14.90;;;9.70;99.90;;;;;;5033737;28;20042;-69
2023/03/19 03:04:15;;;;;;;29.80;11.60;;;9.70;99.90;;;;;;5031648;28;20033;-70
2023/03/19 03:06:42;;;;;;;33.60;15.20;;;9.80;99.90;;;;;;5032942;28;20053;-69
2023/03/19 03:09:08;;;;;;;33.85;14.07;;;9.80;99.90;;;;;;5033304;28;20035;-69
2023/03/19 03:11:34;;;;;;;32.05;14.85;;;9.80;99.90;;;;;;5032986;28;20453;-69
2023/03/19 03:14:00;;;;;;;39.60;17.15;;;9.80;99.90;;;;;;5033538;28;20068;-69
2023/03/19 03:16:26;;;;;;;36.60;15.80;;;9.80;99.90;;;;;;5033429;28;20026;-69
2023/03/19 03:18:51;;;;;;;37.95;16.85;;;9.80;99.90;;;;;;5033339;28;20470;-69
2023/03/19 03:21:19;;;;;;;34.45;13.80;;;9.90;99.90;;;;;;5032247;28;20099;-69
2023/03/19 03:23:44;;;;;;;32.22;16.08;;;9.90;99.90;;;;;;5032913;28;20044;-69
2023/03/19 03:26:11;;;;;;;36.55;17.67;;;9.80;99.90;;;;;;5032086;28;20033;-69
2023/03/19 03:28:36;;;;;;;35.85;17.38;;;9.90;99.90;;;;;;5033311;28;20470;-69
2023/03/19 03:31:02;;;;;;;36.50;16.65;;;9.90;99.90;;;;;;5032964;28;20058;-69
2023/03/19 03:33:28;;;;;;;38.13;18.17;;;9.90;99.90;;;;;;5032978;28;20029;-69
2023/03/19 03:35:54;;;;;;;32.80;15.40;;;9.80;99.90;;;;;;5033059;28;20059;-69
2023/03/19 03:38:20;;;;;;;41.47;18.60;;;9.70;99.90;;;;;;5033459;28;20160;-69
2023/03/19 03:40:51;;;;;;;36.70;18.92;;;9.70;99.90;;;;;;5033151;28;20034;-69
2023/03/19 03:43:18;;;;;;;43.25;19.77;;;9.70;99.90;;;;;;5032774;28;20057;-69
2023/03/19 03:45:43;;;;;;;40.65;19.52;;;9.70;99.90;;;;;;5033109;28;20045;-69
2023/03/19 03:48:09;;;;;;;43.17;19.88;;;9.80;99.90;;;;;;5031230;28;20029;-69
2023/03/19 03:50:35;;;;;;;40.13;20.20;;;9.80;99.90;;;;;;5032756;28;20029;-69
2023/03/19 03:53:01;;;;;;;42.28;20.98;;;9.90;99.90;;;;;;5032537;28;20400;-70
2023/03/19 03:55:27;;;;;;;42.58;20.67;;;9.90;99.90;;;;;;5032189;28;20036;-69
2023/03/19 03:57:52;;;;;;;41.80;20.23;;;9.90;99.90;;;;;;5031271;28;20030;-69
2023/03/19 04:00:18;;;;;;;43.88;21.58;;;10.00;99.90;;;;;;5032321;28;20381;-70
2023/03/19 04:02:45;;;;;;;47.17;21.75;;;10.00;99.90;;;;;;5013033;28;20109;-70
2023/03/19 04:05:10;;;;;;;43.85;21.98;;;10.00;99.90;;;;;;5013249;28;20068;-69
2023/03/19 04:07:37;;;;;;;51.80;25.25;;;10.00;99.90;;;;;;5022862;28;20061;-70
2023/03/19 04:10:04;;;;;;;49.08;24.08;;;10.00;99.90;;;;;;5031479;28;20029;-69
2023/03/19 04:12:30;;;;;;;49.20;24.42;;;10.00;99.90;;;;;;5032305;28;20036;-70
2023/03/19 04:14:55;;;;;;;44.70;22.70;;;10.10;99.90;;;;;;5032143;28;20026;-70
2023/03/19 04:17:22;;;;;;;50.15;23.42;;;10.00;99.90;;;;;;5031700;28;20026;-70
2023/03/19 04:19:48;;;;;;;49.60;25.23;;;10.10;99.90;;;;;;5032464;28;20033;-70
2023/03/19 04:22:14;;;;;;;51.17;24.85;;;10.10;99.90;;;;;;5031902;28;20048;-70
2023/03/19 04:24:40;;;;;;;52.75;25.30;;;10.10;99.90;;;;;;5032576;28;20037;-71
2023/03/19 04:27:06;;;;;;;52.88;24.73;;;10.10;99.90;;;;;;5031839;28;20040;-69
2023/03/19 04:29:32;;;;;;;54.72;25.92;;;10.10;99.90;;;;;;5032332;28;20021;-70
2023/03/19 04:31:57;;;;;;;52.55;25.02;;;10.10;99.90;;;;;;5031697;28;20021;-69
2023/03/19 04:34:23;;;;;;;52.28;24.48;;;10.20;99.90;;;;;;5032266;28;20031;-69
2023/03/19 04:36:50;;;;;;;54.85;26.35;;;10.10;99.90;;;;;;5032041;28;20061;-69
2023/03/19 04:39:16;;;;;;;54.90;23.45;;;10.10;99.90;;;;;;5031835;28;20026;-69
2023/03/19 04:41:42;;;;;;;55.72;23.15;;;10.10;99.90;;;;;;5031379;28;20129;-69
2023/03/19 04:44:07;;;;;;;52.90;23.98;;;10.00;99.90;;;;;;5031928;28;20485;-69
2023/03/19 04:46:33;;;;;;;53.05;23.80;;;10.00;99.90;;;;;;5013876;28;20423;-69
2023/03/19 04:48:59;;;;;;;52.17;24.17;;;10.00;99.90;;;;;;5032399;28;20055;-69
2023/03/19 04:51:25;;;;;;;56.03;25.23;;;10.00;99.90;;;;;;5032144;28;20073;-69
2023/03/19 04:53:50;;;;;;;48.85;21.27;;;10.00;99.90;;;;;;5031435;28;20107;-69
2023/03/19 04:56:16;;;;;;;53.03;23.33;;;10.10;99.90;;;;;;5031735;28;20369;-69
2023/03/19 04:58:42;;;;;;;52.42;24.77;;;10.00;99.90;;;;;;5030825;28;20072;-69
2023/03/19 05:01:08;;;;;;;51.85;23.55;;;10.00;99.90;;;;;;5031227;28;20049;-69
2023/03/19 05:03:33;;;;;;;48.97;21.50;;;10.00;99.90;;;;;;5030600;28;20025;-69
2023/03/19 05:05:59;;;;;;;52.42;23.77;;;10.00;99.90;;;;;;5032056;28;20112;-69
2023/03/19 05:08:25;;;;;;;53.67;23.65;;;10.00;99.90;;;;;;5031779;28;20056;-69
2023/03/19 05:10:51;;;;;;;61.75;26.10;;;10.00;99.90;;;;;;5031314;28;20531;-69
2023/03/19 05:13:17;;;;;;;48.78;21.85;;;10.00;99.90;;;;;;5031443;28;20042;-69
2023/03/19 05:15:44;;;;;;;52.30;22.45;;;10.00;99.90;;;;;;5031263;28;20044;-69
2023/03/19 05:18:10;;;;;;;57.28;25.02;;;10.00;99.90;;;;;;5032003;28;20033;-69
2023/03/19 05:20:36;;;;;;;61.50;26.15;;;9.90;99.90;;;;;;5031937;28;20112;-69
2023/03/19 05:23:02;;;;;;;61.38;23.15;;;9.90;99.90;;;;;;5031122;28;20060;-69
2023/03/19 05:25:28;;;;;;;55.90;22.90;;;9.90;99.90;;;;;;5031561;28;20444;-68
2023/03/19 05:27:54;;;;;;;63.72;22.38;;;9.80;99.90;;;;;;5031983;28;20057;-69
2023/03/19 05:30:20;;;;;;;62.30;20.30;;;9.90;99.90;;;;;;5034739;28;20085;-69
2023/03/19 05:32:46;;;;;;;55.90;18.35;;;9.80;99.90;;;;;;5034522;28;20482;-69
2023/03/19 05:35:12;;;;;;;52.20;15.85;;;9.80;99.90;;;;;;5034173;28;20034;-69
2023/03/19 05:37:38;;;;;;;43.35;15.20;;;9.80;99.90;;;;;;5033938;28;20056;-69
2023/03/19 05:40:05;;;;;;;44.83;15.57;;;9.70;99.90;;;;;;5033718;28;20045;-69
2023/03/19 05:42:31;;;;;;;43.45;15.50;;;9.60;99.90;;;;;;5034167;28;20041;-69
2023/03/19 05:44:56;;;;;;;42.70;14.85;;;9.60;99.90;;;;;;5033465;28;20037;-69
2023/03/19 05:47:22;;;;;;;35.70;13.02;;;9.40;99.90;;;;;;5033788;28;20026;-69
2023/03/19 05:49:48;;;;;;;33.70;12.70;;;9.40;99.90;;;;;;5033664;28;20385;-69
2023/03/19 05:52:13;;;;;;;33.78;12.95;;;9.30;99.90;;;;;;5034130;28;20503;-69
2023/03/19 05:54:40;;;;;;;39.92;13.82;;;9.30;99.90;;;;;;5034199;28;20021;-69
2023/03/19 05:57:06;;;;;;;39.47;14.65;;;9.30;99.90;;;;;;5034125;28;20025;-69
2023/03/19 05:59:33;;;;;;;37.30;11.60;;;9.20;99.90;;;;;;5033694;28;20389;-68
2023/03/19 06:01:58;;;;;;;38.63;12.45;;;9.20;99.90;;;;;;5034196;28;20128;-68
2023/03/19 06:04:24;;;;;;;38.97;13.85;;;9.20;99.90;;;;;;5034135;28;20105;-69
2023/03/19 06:06:50;;;;;;;35.28;13.63;;;9.10;99.90;;;;;;5033957;28;20038;-69
2023/03/19 06:09:16;;;;;;;38.13;15.93;;;9.10;99.90;;;;;;5034143;28;20087;-69
2023/03/19 06:11:41;;;;;;;40.78;16.08;;;9.20;99.90;;;;;;5033940;28;20037;-69
2023/03/19 06:14:07;;;;;;;46.90;16.10;;;9.10;99.90;;;;;;5033449;28;20117;-69
2023/03/19 06:16:33;;;;;;;38.33;13.13;;;9.20;99.90;;;;;;5033768;28;20136;-69
2023/03/19 06:18:58;;;;;;;56.60;15.82;;;9.20;99.90;;;;;;5033834;28;20380;-69
2023/03/19 06:21:28;;;;;;;44.00;14.68;;;9.20;99.90;;;;;;5016090;28;20076;-69
2023/03/19 06:23:54;;;;;;;51.28;19.00;;;9.20;99.90;;;;;;5033662;28;20125;-69
2023/03/19 06:26:20;;;;;;;53.63;19.42;;;9.20;99.90;;;;;;5015640;28;20373;-69
2023/03/19 06:28:45;;;;;;;54.58;19.90;;;9.20;99.90;;;;;;5033499;28;20029;-69
2023/03/19 06:31:11;;;;;;;55.35;18.55;;;9.30;99.90;;;;;;4995758;28;1102111;-69
2023/03/19 06:33:36;;;;;;;57.20;17.60;;;9.40;99.90;;;;;;5034553;28;20034;-69
2023/03/19 06:36:02;;;;;;;46.45;15.88;;;9.40;99.90;;;;;;5034589;28;20025;-69
2023/03/19 06:38:28;;;;;;;59.80;21.35;;;9.40;99.90;;;;;;5034530;28;20441;-68
2023/03/19 06:40:53;;;;;;;55.55;18.00;;;9.40;99.90;;;;;;5031845;28;20034;-69
2023/03/19 06:43:19;;;;;;;56.58;17.55;;;9.40;99.90;;;;;;5034216;28;20051;-70
2023/03/19 06:45:45;;;;;;;50.30;17.33;;;9.50;99.90;;;;;;5034213;28;20067;-69
2023/03/19 06:48:11;;;;;;;43.55;15.00;;;9.50;99.90;;;;;;5034301;28;20041;-69
2023/03/19 06:50:36;;;;;;;44.00;15.90;;;9.50;99.90;;;;;;5034242;28;20172;-68
2023/03/19 06:53:03;;;;;;;47.22;17.15;;;9.50;99.90;;;;;;5033910;28;20487;-69
2023/03/19 06:55:29;;;;;;;56.58;20.75;;;9.50;99.90;;;;;;5032909;28;20029;-69
2023/03/19 06:57:55;;;;;;;50.92;19.13;;;9.50;99.90;;;;;;5033938;28;20144;-69
2023/03/19 07:00:21;;;;;;;44.90;17.05;;;9.60;99.90;;;;;;5032498;28;20172;-68
2023/03/19 07:02:47;;;;;;;53.35;21.23;;;9.70;99.90;;;;;;5014941;28;20400;-68
2023/03/19 07:05:13;;;;;;;62.50;21.20;;;9.70;99.90;;;;;;5016295;28;20478;-69
2023/03/19 07:07:39;;;;;;;64.88;19.90;;;9.70;99.90;;;;;;5034062;28;20137;-69
2023/03/19 07:10:05;;;;;;;50.40;16.42;;;9.80;99.90;;;;;;5032063;28;20111;-69
2023/03/19 07:12:31;;;;;;;57.33;21.00;;;9.90;99.90;;;;;;5033499;28;20097;-69
2023/03/19 07:14:56;;;;;;;57.60;21.20;;;9.90;99.90;;;;;;5033084;28;20061;-68
2023/03/19 07:17:23;;;;;;;48.20;17.75;;;9.90;99.90;;;;;;5033208;28;20099;-68
2023/03/19 07:19:49;;;;;;;44.28;17.55;;;10.00;99.90;;;;;;5033147;28;20580;-69
2023/03/19 07:22:15;;;;;;;48.83;17.27;;;9.90;99.90;;;;;;5013739;28;20129;-69
2023/03/19 07:24:41;;;;;;;58.35;17.67;;;10.00;99.90;;;;;;5032327;28;20033;-68
2023/03/19 07:27:07;;;;;;;56.10;20.33;;;10.00;99.90;;;;;;5032644;28;20111;-69
2023/03/19 07:29:32;;;;;;;53.33;17.38;;;10.10;99.90;;;;;;5032511;28;20057;-68
2023/03/19 07:31:58;;;;;;;51.47;19.17;;;10.10;99.90;;;;;;5032612;28;20025;-69
2023/03/19 07:34:24;;;;;;;51.92;20.45;;;10.20;99.90;;;;;;5032497;28;20108;-68
2023/03/19 07:36:50;;;;;;;50.60;19.58;;;10.20;99.90;;;;;;5032782;28;20111;-68
2023/03/19 07:39:15;;;;;;;49.75;20.33;;;10.30;99.90;;;;;;5032599;28;20454;-68
2023/03/19 07:41:43;;;;;;;51.53;18.70;;;10.40;99.90;;;;;;5032868;28;20409;-69
2023/03/19 07:44:10;;;;;;;59.55;20.60;;;10.50;99.90;;;;;;5033327;28;20112;-69
2023/03/19 07:46:36;;;;;;;63.25;23.27;;;10.50;99.90;;;;;;5032789;28;20034;-68
2023/03/19 07:49:01;;;;;;;61.85;22.00;;;10.50;99.90;;;;;;5032808;28;20068;-68
2023/03/19 07:51:27;;;;;;;54.55;19.27;;;10.60;99.90;;;;;;5032517;28;20033;-69
2023/03/19 07:53:52;;;;;;;54.17;19.35;;;10.70;99.90;;;;;;5032754;28;20087;-68
2023/03/19 07:56:18;;;;;;;54.33;20.17;;;10.70;99.90;;;;;;5033036;28;20366;-68
2023/03/19 07:58:43;;;;;;;56.15;22.38;;;10.70;99.90;;;;;;5033157;28;20076;-68
2023/03/19 08:01:09;;;;;;;54.53;21.52;;;10.80;99.90;;;;;;5031972;28;20134;-68
2023/03/19 08:03:35;;;;;;;55.28;21.08;;;10.70;99.90;;;;;;5031720;28;20029;-68
2023/03/19 08:06:01;;;;;;;61.10;22.92;;;10.90;99.90;;;;;;5031720;28;20036;-68
2023/03/19 08:08:26;;;;;;;57.78;21.20;;;10.90;99.90;;;;;;5032809;28;20038;-69
2023/03/19 08:10:53;;;;;;;59.22;21.42;;;11.00;99.90;;;;;;5032641;28;20488;-69
2023/03/19 08:13:19;;;;;;;58.00;21.15;;;11.10;99.90;;;;;;5031935;28;20088;-69
2023/03/19 08:15:45;;;;;;;64.18;24.40;;;11.20;99.90;;;;;;5032380;28;20025;-68
2023/03/19 08:18:11;;;;;;;66.55;24.52;;;11.20;99.90;;;;;;5031550;28;20037;-68
2023/03/19 08:20:36;;;;;;;64.70;22.67;;;11.20;99.90;;;;;;5031765;28;20116;-68
2023/03/19 08:23:02;;;;;;;57.95;22.70;;;11.30;99.90;;;;;;5031347;28;20037;-70
2023/03/19 08:25:31;;;;;;;65.35;23.85;;;11.30;99.90;;;;;;5031762;28;20025;-69
2023/03/19 08:27:57;;;;;;;57.25;23.08;;;11.40;99.90;;;;;;5031123;28;20061;-70
2023/03/19 08:30:23;;;;;;;60.65;24.02;;;11.40;99.90;;;;;;5032615;28;20099;-68
2023/03/19 08:32:49;;;;;;;64.05;25.25;;;11.40;99.90;;;;;;5031439;28;20037;-69
2023/03/19 08:35:15;;;;;;;71.55;28.17;;;11.50;99.90;;;;;;5031770;28;20043;-69
2023/03/19 08:37:41;;;;;;;61.97;24.52;;;11.50;99.90;;;;;;5031733;28;20041;-69
2023/03/19 08:40:07;;;;;;;74.50;25.38;;;11.60;99.90;;;;;;5030432;28;20449;-69
2023/03/19 08:42:33;;;;;;;65.75;20.50;;;11.50;99.90;;;;;;5032548;28;20046;-68
2023/03/19 08:44:59;;;;;;;63.35;26.92;;;11.50;99.90;;;;;;5032298;28;20025;-69
2023/03/19 08:47:24;;;;;;;73.03;26.48;;;11.50;99.90;;;;;;5032048;28;20466;-69
2023/03/19 08:49:50;;;;;;;59.08;22.38;;;11.60;99.90;;;;;;5030770;28;20482;-69
2023/03/19 08:52:17;;;;;;;76.43;26.65;;;11.50;99.90;;;;;;5031720;28;20082;-69
2023/03/19 08:54:42;;;;;;;71.00;26.80;;;11.50;99.90;;;;;;5031405;28;20065;-69
2023/03/19 08:57:08;;;;;;;65.50;24.42;;;11.60;99.90;;;;;;5030344;28;20059;-70
2023/03/19 08:59:34;;;;;;;61.53;23.00;;;11.60;99.90;;;;;;5031936;28;20030;-69
2023/03/19 09:01:59;;;;;;;50.70;19.80;;;11.60;99.90;;;;;;5011664;28;20045;-69
2023/03/19 09:04:25;;;;;;;53.70;22.52;;;11.70;99.90;;;;;;5034917;28;20032;-70
2023/03/19 09:06:51;;;;;;;57.03;21.83;;;11.70;99.90;;;;;;5035230;28;20035;-69
2023/03/19 09:09:20;;;;;;;60.30;21.38;;;11.80;99.90;;;;;;5035483;28;20033;-70
2023/03/19 09:11:46;;;;;;;55.53;20.98;;;11.70;99.90;;;;;;5035638;28;20030;-69
2023/03/19 09:14:15;;;;;;;49.90;20.00;;;11.70;99.90;;;;;;5035374;28;20041;-70
2023/03/19 09:16:41;;;;;;;47.00;18.23;;;11.70;99.90;;;;;;5034945;28;20512;-70
2023/03/19 09:19:07;;;;;;;52.45;19.17;;;11.70;99.90;;;;;;5036272;28;20026;-69
2023/03/19 09:21:33;;;;;;;50.90;20.85;;;11.80;99.90;;;;;;5035006;28;20045;-69
2023/03/19 09:23:58;;;;;;;46.95;18.50;;;11.80;99.90;;;;;;5036222;28;20061;-70
2023/03/19 09:26:24;;;;;;;48.28;16.20;;;11.80;99.90;;;;;;5031748;28;20424;-70
2023/03/19 09:28:50;;;;;;;48.63;18.38;;;11.80;99.90;;;;;;5034565;28;20045;-69
2023/03/19 09:31:16;;;;;;;45.00;16.98;;;11.80;99.90;;;;;;5034928;28;20490;-69
2023/03/19 09:33:42;;;;;;;50.40;19.27;;;11.70;99.90;;;;;;5035469;28;20060;-70
2023/03/19 09:36:08;;;;;;;49.05;18.77;;;11.80;99.90;;;;;;5034981;28;20036;-70
2023/03/19 09:38:34;;;;;;;47.55;17.15;;;11.80;99.90;;;;;;5035447;28;20458;-70
2023/03/19 09:41:11;;;;;;;42.42;16.70;;;12.00;99.90;;;;;;5035394;28;20072;-70
2023/03/19 09:44:12;;;;;;;42.42;16.90;;;12.10;99.90;;;;;;5035605;28;20025;-70
2023/03/19 09:46:50;;;;;;;47.00;17.50;;;12.10;99.90;;;;;;5030706;28;20034;-70
2023/03/19 09:49:27;;;;;;;44.63;17.10;;;12.20;99.90;;;;;;5035797;28;20095;-69
2023/03/19 09:51:56;;;;;;;47.03;18.20;;;12.30;99.90;;;;;;5035232;28;20032;-70
2023/03/19 09:54:43;;;;;;;42.25;16.60;;;12.50;99.90;;;;;;5033542;28;20053;-69
2023/03/19 09:57:10;;;;;;;42.83;16.80;;;12.60;99.90;;;;;;5027958;28;20036;-69
2023/03/19 09:59:37;;;;;;;41.90;16.35;;;12.70;99.90;;;;;;5035397;28;20030;-70
2023/03/19 10:02:25;;;;;;;38.90;16.45;;;12.70;99.90;;;;;;5032558;28;20532;-70
2023/03/19 10:05:29;;;;;;;43.25;15.50;;;12.80;99.90;;;;;;5035046;28;20026;-69
2023/03/19 10:08:31;;;;;;;31.52;11.88;;;12.80;99.90;;;;;;5035037;28;20481;-70
2023/03/19 10:11:08;;;;;;;38.60;14.95;;;12.80;99.90;;;;;;5034781;28;20109;-70
2023/03/19 10:13:51;;;;;;;40.97;14.63;;;12.80;99.90;;;;;;5034056;28;20477;-69
2023/03/19 10:16:22;;;;;;;39.20;14.50;;;12.80;99.90;;;;;;5032879;28;20029;-70
2023/03/19 10:18:51;;;;;;;37.42;14.05;;;12.70;99.90;;;;;;5033689;28;20044;-70
2023/03/19 10:21:41;;;;;;;39.35;15.90;;;12.80;99.90;;;;;;5032754;28;20120;-70
2023/03/19 10:24:23;;;;;;;36.78;14.25;;;12.70;99.90;;;;;;5032676;28;20026;-71
2023/03/19 10:26:57;;;;;;;39.08;13.98;;;12.70;99.90;;;;;;5034838;28;20037;-70
2023/03/19 10:29:23;;;;;;;33.13;12.57;;;12.70;99.90;;;;;;5033532;28;20029;-70
2023/03/19 10:32:17;;;;;;;32.95;12.90;;;12.60;99.90;;;;;;5034116;28;20045;-71
2023/03/19 10:34:53;;;;;;;35.33;14.65;;;12.60;99.90;;;;;;5034608;28;20025;-71
2023/03/19 10:37:21;;;;;;;32.30;14.35;;;12.70;99.90;;;;;;5034388;28;20036;-71
2023/03/19 10:39:49;;;;;;;33.78;14.02;;;12.70;99.90;;;;;;5033054;28;20039;-70
2023/03/19 10:42:38;;;;;;;37.67;15.05;;;12.80;99.90;;;;;;5034384;28;20095;-70
2023/03/19 10:45:22;;;;;;;34.38;15.45;;;12.90;99.90;;;;;;5034606;28;20029;-70
2023/03/19 10:47:47;;;;;;;41.90;15.07;;;13.10;99.90;;;;;;5033788;28;20060;-70
2023/03/19 10:50:19;;;;;;;35.53;13.48;;;13.10;99.90;;;;;;5032681;28;20867;-70
2023/03/19 10:52:50;;;;;;;43.53;17.52;;;13.30;99.90;;;;;;5030790;28;20033;-70
2023/03/19 10:55:22;;;;;;;32.97;13.93;;;13.40;99.90;;;;;;5029740;28;20056;-70
2023/03/19 10:57:49;;;;;;;35.97;13.13;;;13.60;99.90;;;;;;5030717;28;20043;-71
2023/03/19 11:00:21;;;;;;;32.20;13.38;;;13.70;99.90;;;;;;5029893;28;20025;-71
2023/03/19 11:02:53;;;;;;;32.92;11.82;;;13.70;99.90;;;;;;5032356;28;20029;-71
2023/03/19 11:05:23;;;;;;;32.25;12.40;;;13.80;99.90;;;;;;5030375;28;20029;-71
2023/03/19 11:08:04;;;;;;;36.28;14.48;;;14.00;99.90;;;;;;5031568;28;20128;-71
2023/03/19 11:10:33;;;;;;;30.73;12.98;;;14.20;99.90;;;;;;5031798;28;20036;-71
2023/03/19 11:13:04;;;;;;;36.17;14.50;;;14.30;99.90;;;;;;5029944;28;20049;-70
2023/03/19 11:15:36;;;;;;;30.90;11.80;;;14.30;99.90;;;;;;5031954;28;20509;-71
2023/03/19 11:18:06;;;;;;;;;;;14.20;99.90;;;;;;5032361;28;20030;-71
2023/03/19 11:20:37;;;;;;;27.58;11.13;;;14.20;99.90;;;;;;5031560;28;19905;-71
2023/03/19 11:23:16;;;;;;;28.17;12.00;;;14.20;99.90;;;;;;5031954;28;20021;-70
2023/03/19 11:25:50;;;;;;;30.25;12.30;;;14.20;99.90;;;;;;5029561;28;20026;-71
2023/03/19 11:28:18;;;;;;;28.50;11.55;;;14.20;99.90;;;;;;5032130;28;20429;-71
2023/03/19 11:30:50;;;;;;;31.98;10.02;;;14.10;99.90;;;;;;5031479;28;20060;-71
2023/03/19 11:33:46;;;;;;;29.10;11.80;;;14.10;99.90;;;;;;5029386;28;20036;-71
2023/03/19 11:36:29;;;;;;;25.73;9.73;;;14.10;99.90;;;;;;5031305;28;20022;-70
2023/03/19 11:39:17;;;;;;;34.25;11.73;;;14.10;99.90;;;;;;5028693;28;20116;-71
2023/03/19 11:41:55;;;;;;;42.90;11.85;;;14.00;99.90;;;;;;5031062;28;20125;-70
2023/03/19 11:44:39;;;;;;;36.15;12.45;;;14.00;99.90;;;;;;5030314;28;20033;-70
2023/03/19 11:47:47;;;;;;;40.53;13.20;;;14.00;99.90;;;;;;5030287;28;20788;-70
2023/03/19 11:50:38;;;;;;;41.95;12.48;;;13.90;99.90;;;;;;5029883;28;20037;-69
2023/03/19 11:53:21;;;;;;;39.30;11.98;;;13.90;99.90;;;;;;5029673;28;20120;-70
2023/03/19 11:56:01;;;;;;;47.53;13.10;;;13.80;99.90;;;;;;5030401;28;20032;-71
2023/03/19 11:58:40;;;;;;;43.67;13.07;;;13.80;99.90;;;;;;5030648;28;20030;-69
2023/03/19 12:01:25;;;;;;;40.20;13.05;;;13.90;99.90;;;;;;5026012;28;20068;-69
2023/03/19 12:04:02;;;;;;;44.97;13.85;;;13.80;99.90;;;;;;5028994;28;20087;-70
2023/03/19 12:06:31;;;;;;;40.63;13.60;;;13.80;99.90;;;;;;5028669;28;20109;-70
2023/03/19 12:09:49;;;;;;;36.85;13.15;;;13.70;99.90;;;;;;5027502;28;20025;-70
2023/03/19 12:12:25;;;;;;;37.95;13.82;;;13.70;99.90;;;;;;4955899;28;20485;-70
2023/03/19 12:15:15;;;;;;;41.22;14.07;;;13.70;99.90;;;;;;5029078;28;20056;-70
2023/03/19 12:17:45;;;;;;;40.17;13.48;;;13.60;99.90;;;;;;5030429;28;20034;-72
2023/03/19 12:20:37;;;;;;;35.63;12.85;;;13.70;99.90;;;;;;5030057;28;20400;-70
2023/03/19 12:23:35;;;;;;;34.95;13.90;;;13.70;99.90;;;;;;5029560;28;20045;-70
2023/03/19 12:26:28;;;;;;;32.63;12.15;;;13.80;99.90;;;;;;5029517;28;20472;-70
2023/03/19 12:29:20;;;;;;;36.35;14.35;;;13.80;99.90;;;;;;5017246;28;20041;-70
2023/03/19 12:31:48;;;;;;;37.57;13.23;;;13.90;99.90;;;;;;5030231;28;20115;-70
2023/03/19 12:34:34;;;;;;;37.58;13.07;;;13.90;99.90;;;;;;5030230;28;20282;-70
2023/03/19 12:37:39;;;;;;;30.45;11.18;;;14.00;99.90;;;;;;5029563;28;20029;-70
2023/03/19 12:40:14;;;;;;;32.05;13.00;;;14.00;99.90;;;;;;4980285;28;20048;-70
2023/03/19 12:42:40;;;;;;;34.95;12.00;;;14.00;99.90;;;;;;5031621;28;20038;-70